sensor_id;sensor_type;location;lat;lon;timestamp;P1;durP1;ratioP1;P2;durP2;ratioP2
15474;SDS011;7839;50.462;9.678;2023-05-10T00:00:57;1.23;;;1.23;;
15474;SDS011;7839;50.462;9.678;2023-05-10T00:07:37;1.23;;;1.23;;
15474;SDS011;7839;50.462;9.678;2023-05-10T00:14:18;1.07;;;1.07;;
15474;SDS011;7839;50.462;9.678;2023-05-10T00:20:58;1.35;;;1.25;;
15474;SDS011;7839;50.462;9.678;2023-05-10T00:27:38;0.98;;;0.98;;
15474;SDS011;7839;50.462;9.678;2023-05-10T00:34:19;1.10;;;1.00;;
15474;SDS011;7839;50.462;9.678;2023-05-10T00:40:59;1.00;;;1.00;;
15474;SDS011;7839;50.462;9.678;2023-05-10T00:47:39;0.70;;;0.70;;
15474;SDS011;7839;50.462;9.678;2023-05-10T00:54:20;1.58;;;1.10;;
15474;SDS011;7839;50.462;9.678;2023-05-10T01:01:00;0.82;;;0.80;;
15474;SDS011;7839;50.462;9.678;2023-05-10T01:07:41;1.00;;;1.00;;
15474;SDS011;7839;50.462;9.678;2023-05-10T01:14:23;0.90;;;0.90;;
15474;SDS011;7839;50.462;9.678;2023-05-10T01:21:19;1.00;;;1.00;;
15474;SDS011;7839;50.462;9.678;2023-05-10T01:41:39;1.00;;;1.00;;
15474;SDS011;7839;50.462;9.678;2023-05-10T01:48:20;0.77;;;0.77;;
15474;SDS011;7839;50.462;9.678;2023-05-10T01:55:11;0.80;;;0.80;;
15474;SDS011;7839;50.462;9.678;2023-05-10T02:01:53;0.83;;;0.80;;
15474;SDS011;7839;50.462;9.678;2023-05-10T02:08:34;0.73;;;0.70;;
15474;SDS011;7839;50.462;9.678;2023-05-10T02:15:17;0.73;;;0.73;;
15474;SDS011;7839;50.462;9.678;2023-05-10T02:21:58;0.60;;;0.60;;
15474;SDS011;7839;50.462;9.678;2023-05-10T02:28:40;0.60;;;0.60;;
15474;SDS011;7839;50.462;9.678;2023-05-10T02:35:20;0.60;;;0.60;;
15474;SDS011;7839;50.462;9.678;2023-05-10T02:42:01;0.43;;;0.43;;
15474;SDS011;7839;50.462;9.678;2023-05-10T02:48:42;0.40;;;0.40;;
15474;SDS011;7839;50.462;9.678;2023-05-10T02:55:24;0.50;;;0.50;;
15474;SDS011;7839;50.462;9.678;2023-05-10T03:02:05;0.50;;;0.50;;
15474;SDS011;7839;50.462;9.678;2023-05-10T03:08:46;0.40;;;0.40;;
15474;SDS011;7839;50.462;9.678;2023-05-10T03:22:12;0.40;;;0.40;;
15474;SDS011;7839;50.462;9.678;2023-05-10T03:28:55;0.57;;;0.57;;
15474;SDS011;7839;50.462;9.678;2023-05-10T03:35:35;0.40;;;0.40;;
15474;SDS011;7839;50.462;9.678;2023-05-10T03:42:15;0.55;;;0.55;;
15474;SDS011;7839;50.462;9.678;2023-05-10T03:48:57;0.50;;;0.40;;
15474;SDS011;7839;50.462;9.678;2023-05-10T03:55:37;0.50;;;0.30;;
15474;SDS011;7839;50.462;9.678;2023-05-10T04:02:18;0.45;;;0.32;;
15474;SDS011;7839;50.462;9.678;2023-05-10T04:08:58;0.47;;;0.30;;
15474;SDS011;7839;50.462;9.678;2023-05-10T04:15:44;0.30;;;0.30;;
15474;SDS011;7839;50.462;9.678;2023-05-10T04:22:24;0.45;;;0.45;;
15474;SDS011;7839;50.462;9.678;2023-05-10T04:29:04;0.30;;;0.30;;
15474;SDS011;7839;50.462;9.678;2023-05-10T04:35:44;0.30;;;0.30;;
15474;SDS011;7839;50.462;9.678;2023-05-10T04:42:25;0.50;;;0.50;;
15474;SDS011;7839;50.462;9.678;2023-05-10T04:49:05;0.40;;;0.40;;
15474;SDS011;7839;50.462;9.678;2023-05-10T04:55:45;0.30;;;0.30;;
15474;SDS011;7839;50.462;9.678;2023-05-10T05:02:26;0.40;;;0.40;;
15474;SDS011;7839;50.462;9.678;2023-05-10T05:09:06;0.47;;;0.40;;
15474;SDS011;7839;50.462;9.678;2023-05-10T05:15:47;0.30;;;0.30;;
15474;SDS011;7839;50.462;9.678;2023-05-10T05:22:27;0.20;;;0.20;;
15474;SDS011;7839;50.462;9.678;2023-05-10T05:29:08;0.20;;;0.20;;
15474;SDS011;7839;50.462;9.678;2023-05-10T05:35:48;0.30;;;0.30;;
15474;SDS011;7839;50.462;9.678;2023-05-10T05:42:30;0.47;;;0.40;;
15474;SDS011;7839;50.462;9.678;2023-05-10T05:49:11;0.20;;;0.20;;
15474;SDS011;7839;50.462;9.678;2023-05-10T05:55:52;0.20;;;0.20;;
15474;SDS011;7839;50.462;9.678;2023-05-10T06:02:34;0.28;;;0.28;;
15474;SDS011;7839;50.462;9.678;2023-05-10T06:09:14;0.23;;;0.23;;
15474;SDS011;7839;50.462;9.678;2023-05-10T06:15:54;0.63;;;0.30;;
15474;SDS011;7839;50.462;9.678;2023-05-10T06:22:34;0.30;;;0.20;;
15474;SDS011;7839;50.462;9.678;2023-05-10T06:29:15;0.20;;;0.20;;
15474;SDS011;7839;50.462;9.678;2023-05-10T06:35:55;0.30;;;0.30;;
15474;SDS011;7839;50.462;9.678;2023-05-10T06:42:35;0.20;;;0.20;;
15474;SDS011;7839;50.462;9.678;2023-05-10T06:49:16;0.30;;;0.30;;
15474;SDS011;7839;50.462;9.678;2023-05-10T06:55:56;0.30;;;0.30;;
15474;SDS011;7839;50.462;9.678;2023-05-10T07:02:36;0.30;;;0.30;;
15474;SDS011;7839;50.462;9.678;2023-05-10T07:09:16;0.50;;;0.50;;
15474;SDS011;7839;50.462;9.678;2023-05-10T07:15:57;0.20;;;0.20;;
15474;SDS011;7839;50.462;9.678;2023-05-10T07:22:37;1.03;;;0.30;;
15474;SDS011;7839;50.462;9.678;2023-05-10T07:29:17;0.10;;;0.10;;
15474;SDS011;7839;50.462;9.678;2023-05-10T07:35:58;0.43;;;0.43;;
15474;SDS011;7839;50.462;9.678;2023-05-10T07:42:38;0.27;;;0.27;;
15474;SDS011;7839;50.462;9.678;2023-05-10T07:49:18;0.30;;;0.20;;
15474;SDS011;7839;50.462;9.678;2023-05-10T07:55:58;0.80;;;0.20;;
15474;SDS011;7839;50.462;9.678;2023-05-10T08:02:38;0.22;;;0.20;;
15474;SDS011;7839;50.462;9.678;2023-05-10T08:09:19;0.25;;;0.25;;
15474;SDS011;7839;50.462;9.678;2023-05-10T08:16:03;0.20;;;0.20;;
15474;SDS011;7839;50.462;9.678;2023-05-10T08:22:43;0.25;;;0.25;;
15474;SDS011;7839;50.462;9.678;2023-05-10T08:29:24;0.32;;;0.32;;
15474;SDS011;7839;50.462;9.678;2023-05-10T08:36:04;0.20;;;0.20;;
15474;SDS011;7839;50.462;9.678;2023-05-10T08:42:46;0.20;;;0.20;;
15474;SDS011;7839;50.462;9.678;2023-05-10T08:49:27;0.40;;;0.40;;
15474;SDS011;7839;50.462;9.678;2023-05-10T08:56:11;0.75;;;0.25;;
15474;SDS011;7839;50.462;9.678;2023-05-10T09:02:51;0.30;;;0.30;;
15474;SDS011;7839;50.462;9.678;2023-05-10T09:09:31;0.30;;;0.30;;
15474;SDS011;7839;50.462;9.678;2023-05-10T09:16:12;0.30;;;0.30;;
15474;SDS011;7839;50.462;9.678;2023-05-10T09:22:52;0.20;;;0.20;;
15474;SDS011;7839;50.462;9.678;2023-05-10T09:29:39;0.40;;;0.38;;
15474;SDS011;7839;50.462;9.678;2023-05-10T09:36:20;0.38;;;0.38;;
15474;SDS011;7839;50.462;9.678;2023-05-10T09:49:41;0.20;;;0.20;;
15474;SDS011;7839;50.462;9.678;2023-05-10T09:56:34;0.20;;;0.20;;
15474;SDS011;7839;50.462;9.678;2023-05-10T10:03:19;0.50;;;0.37;;
15474;SDS011;7839;50.462;9.678;2023-05-10T10:10:00;0.57;;;0.57;;
15474;SDS011;7839;50.462;9.678;2023-05-10T10:16:40;0.40;;;0.23;;
15474;SDS011;7839;50.462;9.678;2023-05-10T10:23:20;0.90;;;0.30;;
15474;SDS011;7839;50.462;9.678;2023-05-10T10:30:03;0.20;;;0.20;;
15474;SDS011;7839;50.462;9.678;2023-05-10T10:36:46;1.17;;;0.20;;
15474;SDS011;7839;50.462;9.678;2023-05-10T10:43:27;0.55;;;0.55;;
15474;SDS011;7839;50.462;9.678;2023-05-10T10:50:07;0.83;;;0.40;;
15474;SDS011;7839;50.462;9.678;2023-05-10T10:57:02;0.30;;;0.30;;
15474;SDS011;7839;50.462;9.678;2023-05-10T11:10:52;0.30;;;0.30;;
15474;SDS011;7839;50.462;9.678;2023-05-10T11:17:32;0.38;;;0.35;;
15474;SDS011;7839;50.462;9.678;2023-05-10T11:24:19;0.40;;;0.40;;
15474;SDS011;7839;50.462;9.678;2023-05-10T11:30:59;0.43;;;0.43;;
15474;SDS011;7839;50.462;9.678;2023-05-10T11:37:41;0.50;;;0.43;;
15474;SDS011;7839;50.462;9.678;2023-05-10T11:44:23;0.85;;;0.60;;
15474;SDS011;7839;50.462;9.678;2023-05-10T11:51:04;2.20;;;0.50;;
15474;SDS011;7839;50.462;9.678;2023-05-10T11:57:45;0.50;;;0.50;;
15474;SDS011;7839;50.462;9.678;2023-05-10T12:04:26;0.63;;;0.52;;
15474;SDS011;7839;50.462;9.678;2023-05-10T12:11:09;0.70;;;0.65;;
15474;SDS011;7839;50.462;9.678;2023-05-10T12:17:54;0.40;;;0.40;;
15474;SDS011;7839;50.462;9.678;2023-05-10T12:24:34;0.47;;;0.47;;
15474;SDS011;7839;50.462;9.678;2023-05-10T12:31:15;0.35;;;0.35;;
15474;SDS011;7839;50.462;9.678;2023-05-10T12:37:55;0.98;;;0.60;;
15474;SDS011;7839;50.462;9.678;2023-05-10T12:44:35;0.60;;;0.60;;
15474;SDS011;7839;50.462;9.678;2023-05-10T12:51:17;0.75;;;0.60;;
15474;SDS011;7839;50.462;9.678;2023-05-10T12:57:59;0.80;;;0.80;;
15474;SDS011;7839;50.462;9.678;2023-05-10T13:04:40;2.03;;;0.85;;
15474;SDS011;7839;50.462;9.678;2023-05-10T13:11:20;0.70;;;0.70;;
15474;SDS011;7839;50.462;9.678;2023-05-10T13:18:01;0.60;;;0.60;;
15474;SDS011;7839;50.462;9.678;2023-05-10T13:24:41;0.70;;;0.70;;
15474;SDS011;7839;50.462;9.678;2023-05-10T13:31:21;0.60;;;0.60;;
15474;SDS011;7839;50.462;9.678;2023-05-10T13:38:02;1.13;;;0.67;;
15474;SDS011;7839;50.462;9.678;2023-05-10T13:44:42;0.70;;;0.70;;
15474;SDS011;7839;50.462;9.678;2023-05-10T13:51:22;0.75;;;0.75;;
15474;SDS011;7839;50.462;9.678;2023-05-10T13:58:03;0.65;;;0.65;;
15474;SDS011;7839;50.462;9.678;2023-05-10T14:04:43;0.60;;;0.60;;
15474;SDS011;7839;50.462;9.678;2023-05-10T14:11:23;0.83;;;0.70;;
15474;SDS011;7839;50.462;9.678;2023-05-10T14:18:03;0.60;;;0.60;;
15474;SDS011;7839;50.462;9.678;2023-05-10T14:24:44;1.95;;;0.70;;
15474;SDS011;7839;50.462;9.678;2023-05-10T14:31:26;0.47;;;0.47;;
15474;SDS011;7839;50.462;9.678;2023-05-10T14:38:06;0.40;;;0.40;;
15474;SDS011;7839;50.462;9.678;2023-05-10T14:44:47;0.50;;;0.50;;
15474;SDS011;7839;50.462;9.678;2023-05-10T14:51:27;0.50;;;0.50;;
15474;SDS011;7839;50.462;9.678;2023-05-10T14:58:07;0.60;;;0.60;;
15474;SDS011;7839;50.462;9.678;2023-05-10T15:04:47;0.50;;;0.50;;
15474;SDS011;7839;50.462;9.678;2023-05-10T15:11:28;0.50;;;0.50;;
15474;SDS011;7839;50.462;9.678;2023-05-10T15:18:09;0.50;;;0.50;;
15474;SDS011;7839;50.462;9.678;2023-05-10T15:24:49;0.55;;;0.40;;
15474;SDS011;7839;50.462;9.678;2023-05-10T15:31:29;0.30;;;0.30;;
15474;SDS011;7839;50.462;9.678;2023-05-10T15:38:09;0.50;;;0.50;;
15474;SDS011;7839;50.462;9.678;2023-05-10T15:44:51;0.43;;;0.43;;
15474;SDS011;7839;50.462;9.678;2023-05-10T15:51:31;0.57;;;0.57;;
15474;SDS011;7839;50.462;9.678;2023-05-10T15:58:12;0.40;;;0.40;;
15474;SDS011;7839;50.462;9.678;2023-05-10T16:04:52;0.40;;;0.40;;
15474;SDS011;7839;50.462;9.678;2023-05-10T16:11:33;0.63;;;0.50;;
15474;SDS011;7839;50.462;9.678;2023-05-10T16:18:13;0.55;;;0.55;;
15474;SDS011;7839;50.462;9.678;2023-05-10T16:24:53;0.30;;;0.30;;
15474;SDS011;7839;50.462;9.678;2023-05-10T16:31:34;0.52;;;0.43;;
15474;SDS011;7839;50.462;9.678;2023-05-10T16:38:14;0.50;;;0.50;;
15474;SDS011;7839;50.462;9.678;2023-05-10T16:44:54;0.50;;;0.50;;
15474;SDS011;7839;50.462;9.678;2023-05-10T16:51:34;0.40;;;0.40;;
15474;SDS011;7839;50.462;9.678;2023-05-10T16:58:14;0.40;;;0.40;;
15474;SDS011;7839;50.462;9.678;2023-05-10T17:04:55;0.55;;;0.40;;
15474;SDS011;7839;50.462;9.678;2023-05-10T17:11:35;0.40;;;0.40;;
15474;SDS011;7839;50.462;9.678;2023-05-10T17:18:16;0.45;;;0.45;;
15474;SDS011;7839;50.462;9.678;2023-05-10T17:24:57;0.22;;;0.22;;
15474;SDS011;7839;50.462;9.678;2023-05-10T17:31:37;0.40;;;0.40;;
15474;SDS011;7839;50.462;9.678;2023-05-10T17:38:17;0.60;;;0.60;;
15474;SDS011;7839;50.462;9.678;2023-05-10T17:44:57;0.40;;;0.40;;
15474;SDS011;7839;50.462;9.678;2023-05-10T17:51:37;0.40;;;0.40;;
15474;SDS011;7839;50.462;9.678;2023-05-10T17:58:20;1.27;;;0.40;;
15474;SDS011;7839;50.462;9.678;2023-05-10T18:05:00;0.33;;;0.33;;
15474;SDS011;7839;50.462;9.678;2023-05-10T18:11:41;0.75;;;0.57;;
15474;SDS011;7839;50.462;9.678;2023-05-10T18:18:21;0.40;;;0.40;;
15474;SDS011;7839;50.462;9.678;2023-05-10T18:25:01;1.35;;;0.50;;
15474;SDS011;7839;50.462;9.678;2023-05-10T18:31:41;0.30;;;0.30;;
15474;SDS011;7839;50.462;9.678;2023-05-10T18:38:21;0.30;;;0.30;;
15474;SDS011;7839;50.462;9.678;2023-05-10T18:45:02;0.50;;;0.50;;
15474;SDS011;7839;50.462;9.678;2023-05-10T18:51:42;0.47;;;0.47;;
15474;SDS011;7839;50.462;9.678;2023-05-10T18:58:23;0.27;;;0.27;;
15474;SDS011;7839;50.462;9.678;2023-05-10T19:05:03;0.50;;;0.50;;
15474;SDS011;7839;50.462;9.678;2023-05-10T19:11:43;0.50;;;0.40;;
15474;SDS011;7839;50.462;9.678;2023-05-10T19:18:23;0.50;;;0.50;;
15474;SDS011;7839;50.462;9.678;2023-05-10T19:25:04;0.50;;;0.50;;
15474;SDS011;7839;50.462;9.678;2023-05-10T19:31:44;0.53;;;0.53;;
15474;SDS011;7839;50.462;9.678;2023-05-10T19:38:25;0.33;;;0.33;;
15474;SDS011;7839;50.462;9.678;2023-05-10T19:45:05;0.88;;;0.47;;
15474;SDS011;7839;50.462;9.678;2023-05-10T19:51:46;0.30;;;0.30;;
15474;SDS011;7839;50.462;9.678;2023-05-10T19:58:27;0.50;;;0.50;;
15474;SDS011;7839;50.462;9.678;2023-05-10T20:05:08;0.53;;;0.53;;
15474;SDS011;7839;50.462;9.678;2023-05-10T20:11:49;0.73;;;0.47;;
15474;SDS011;7839;50.462;9.678;2023-05-10T20:18:29;0.43;;;0.43;;
15474;SDS011;7839;50.462;9.678;2023-05-10T20:25:09;0.83;;;0.60;;
15474;SDS011;7839;50.462;9.678;2023-05-10T20:31:49;0.98;;;0.40;;
15474;SDS011;7839;50.462;9.678;2023-05-10T20:38:30;0.50;;;0.50;;
15474;SDS011;7839;50.462;9.678;2023-05-10T20:45:10;0.77;;;0.60;;
15474;SDS011;7839;50.462;9.678;2023-05-10T20:51:50;1.30;;;0.50;;
15474;SDS011;7839;50.462;9.678;2023-05-10T20:58:30;0.47;;;0.47;;
15474;SDS011;7839;50.462;9.678;2023-05-10T21:05:11;0.50;;;0.47;;
15474;SDS011;7839;50.462;9.678;2023-05-10T21:11:52;0.30;;;0.30;;
15474;SDS011;7839;50.462;9.678;2023-05-10T21:18:32;0.30;;;0.30;;
15474;SDS011;7839;50.462;9.678;2023-05-10T21:25:12;0.45;;;0.43;;
15474;SDS011;7839;50.462;9.678;2023-05-10T21:31:53;0.47;;;0.40;;
15474;SDS011;7839;50.462;9.678;2023-05-10T21:38:33;0.37;;;0.37;;
15474;SDS011;7839;50.462;9.678;2023-05-10T21:45:16;0.38;;;0.35;;
15474;SDS011;7839;50.462;9.678;2023-05-10T21:51:57;0.10;;;0.10;;
15474;SDS011;7839;50.462;9.678;2023-05-10T21:58:37;0.43;;;0.37;;
15474;SDS011;7839;50.462;9.678;2023-05-10T22:05:17;0.27;;;0.20;;
15474;SDS011;7839;50.462;9.678;2023-05-10T22:11:57;0.20;;;0.20;;
15474;SDS011;7839;50.462;9.678;2023-05-10T22:18:37;0.40;;;0.27;;
15474;SDS011;7839;50.462;9.678;2023-05-10T22:25:18;0.20;;;0.20;;
15474;SDS011;7839;50.462;9.678;2023-05-10T22:31:58;0.25;;;0.25;;
15474;SDS011;7839;50.462;9.678;2023-05-10T22:38:38;0.40;;;0.30;;
15474;SDS011;7839;50.462;9.678;2023-05-10T22:45:18;0.40;;;0.30;;
15474;SDS011;7839;50.462;9.678;2023-05-10T22:51:59;1.23;;;0.30;;
15474;SDS011;7839;50.462;9.678;2023-05-10T22:58:39;0.33;;;0.33;;
15474;SDS011;7839;50.462;9.678;2023-05-10T23:05:19;1.13;;;0.20;;
15474;SDS011;7839;50.462;9.678;2023-05-10T23:11:59;0.95;;;0.25;;
15474;SDS011;7839;50.462;9.678;2023-05-10T23:18:40;0.20;;;0.20;;
15474;SDS011;7839;50.462;9.678;2023-05-10T23:25:20;0.30;;;0.20;;
15474;SDS011;7839;50.462;9.678;2023-05-10T23:32:00;0.47;;;0.30;;
15474;SDS011;7839;50.462;9.678;2023-05-10T23:38:40;0.80;;;0.23;;
15474;SDS011;7839;50.462;9.678;2023-05-10T23:45:21;0.30;;;0.20;;
15474;SDS011;7839;50.462;9.678;2023-05-10T23:52:01;0.10;;;0.10;;
15474;SDS011;7839;50.462;9.678;2023-05-10T23:58:41;0.30;;;0.20;;
